createdAt,value
2022-12-26T00:01:57.494Z,12.10
2022-12-26T00:04:48.913Z,12.10
2022-12-26T00:07:10.976Z,12.10
2022-12-26T00:09:37.630Z,12.10
2022-12-26T00:12:04.881Z,12.10
2022-12-26T00:14:31.560Z,12.10
2022-12-26T00:16:58.211Z,12.20
2022-12-26T00:19:25.207Z,12.20
2022-12-26T00:21:51.852Z,12.30
2022-12-26T00:24:18.565Z,12.30
2022-12-26T00:26:45.198Z,12.30
2022-12-26T00:29:13.084Z,12.30
2022-12-26T00:31:39.796Z,12.20
2022-12-26T00:34:06.487Z,12.20
2022-12-26T00:36:34.174Z,12.20
2022-12-26T00:39:02.718Z,12.20
2022-12-26T00:41:29.924Z,12.20
2022-12-26T00:43:56.843Z,12.20
2022-12-26T00:46:23.952Z,12.20
2022-12-26T00:48:50.908Z,12.20
2022-12-26T00:51:18.252Z,12.20
2022-12-26T00:53:45.055Z,12.20
2022-12-26T00:56:12.047Z,12.20
2022-12-26T00:58:38.766Z,12.20
2022-12-26T01:01:17.203Z,12.30
2022-12-26T01:03:45.092Z,12.20
2022-12-26T01:06:12.347Z,12.20
2022-12-26T01:08:39.218Z,12.30
2022-12-26T01:11:08.786Z,12.20
2022-12-26T01:13:36.375Z,12.20
2022-12-26T01:16:03.715Z,12.30
2022-12-26T01:18:30.511Z,12.20
2022-12-26T01:21:03.586Z,12.30
2022-12-26T01:23:30.509Z,12.30
2022-12-26T01:26:17.015Z,12.30
2022-12-26T01:28:43.802Z,12.30
2022-12-26T01:31:10.465Z,12.20
2022-12-26T01:33:37.211Z,12.30
2022-12-26T01:36:04.032Z,12.30
2022-12-26T01:38:30.728Z,12.30
2022-12-26T01:41:16.297Z,12.20
2022-12-26T01:44:00.095Z,12.30
2022-12-26T01:46:40.560Z,12.30
2022-12-26T01:49:15.631Z,12.30
2022-12-26T01:51:46.143Z,12.20
2022-12-26T01:54:39.704Z,12.30
2022-12-26T01:57:07.321Z,12.30
2022-12-26T01:59:37.390Z,12.20
2022-12-26T02:02:04.685Z,12.20
2022-12-26T02:04:55.009Z,12.20
2022-12-26T02:07:22.532Z,12.20
2022-12-26T02:09:49.337Z,12.20
2022-12-26T02:12:35.060Z,12.20
2022-12-26T02:15:05.321Z,12.20
2022-12-26T02:17:32.362Z,12.20
2022-12-26T02:20:22.313Z,12.20
2022-12-26T02:23:26.580Z,12.30
2022-12-26T02:26:14.880Z,12.30
2022-12-26T02:29:02.482Z,12.30
2022-12-26T02:31:43.819Z,12.20
2022-12-26T02:34:41.411Z,12.20
2022-12-26T02:37:33.563Z,12.20
2022-12-26T02:40:13.020Z,12.20
2022-12-26T02:43:16.867Z,12.30
2022-12-26T02:46:31.555Z,12.30
2022-12-26T02:49:07.417Z,12.30
2022-12-26T02:52:19.809Z,12.30
2022-12-26T02:55:15.843Z,12.30
2022-12-26T02:58:06.993Z,12.30
2022-12-26T03:00:55.134Z,12.30
2022-12-26T03:03:48.631Z,12.30
2022-12-26T03:06:39.304Z,12.30
2022-12-26T03:09:33.367Z,12.40
2022-12-26T03:12:25.504Z,12.30
2022-12-26T03:14:55.235Z,12.40
2022-12-26T03:17:49.668Z,12.40
2022-12-26T03:20:21.866Z,12.30
2022-12-26T03:22:54.629Z,12.30
2022-12-26T03:25:48.641Z,11.10
2022-12-26T03:28:15.851Z,12.30
2022-12-26T03:30:52.038Z,12.40
2022-12-26T03:33:49.773Z,12.40
2022-12-26T03:36:45.831Z,12.40
2022-12-26T03:39:53.104Z,12.40
2022-12-26T03:42:44.376Z,12.40
2022-12-26T03:45:29.903Z,12.40
2022-12-26T03:48:24.331Z,12.40
2022-12-26T03:51:17.405Z,12.40
2022-12-26T03:54:09.311Z,12.40
2022-12-26T03:57:01.388Z,12.30
2022-12-26T03:59:59.944Z,12.30
2022-12-26T04:02:59.007Z,12.30
2022-12-26T04:05:45.082Z,12.30
2022-12-26T04:08:40.147Z,12.30
2022-12-26T04:11:32.758Z,12.30
2022-12-26T04:14:39.498Z,12.30
2022-12-26T04:18:00.609Z,12.20
2022-12-26T04:21:05.485Z,12.20
2022-12-26T04:24:02.160Z,12.10
2022-12-26T04:27:03.280Z,12.10
2022-12-26T04:29:49.109Z,12.00
2022-12-26T04:32:43.945Z,12.00
2022-12-26T04:35:40.647Z,12.00
2022-12-26T04:38:28.179Z,12.00
2022-12-26T04:41:16.579Z,12.00
2022-12-26T04:44:02.639Z,12.00
2022-12-26T04:46:31.059Z,12.00
2022-12-26T04:49:18.450Z,12.00
2022-12-26T04:51:45.085Z,12.10
2022-12-26T04:54:11.716Z,12.10
2022-12-26T04:56:38.357Z,12.20
2022-12-26T04:59:05.023Z,12.20
2022-12-26T05:01:50.352Z,12.20
2022-12-26T05:04:37.395Z,12.30
2022-12-26T05:07:29.028Z,12.30
2022-12-26T05:09:55.702Z,12.30
2022-12-26T05:12:22.388Z,12.40
2022-12-26T05:14:49.038Z,12.40
2022-12-26T05:17:34.370Z,12.40
2022-12-26T05:20:19.826Z,12.40
2022-12-26T05:23:05.327Z,12.50
2022-12-26T05:26:00.505Z,12.50
2022-12-26T05:28:42.881Z,12.50
2022-12-26T05:31:17.791Z,12.60
2022-12-26T05:34:03.152Z,12.60
2022-12-26T05:36:34.662Z,12.60
2022-12-26T05:39:01.931Z,12.60
2022-12-26T05:41:28.685Z,12.60
2022-12-26T05:43:55.338Z,12.60
2022-12-26T05:46:22.027Z,12.50
2022-12-26T05:48:48.728Z,12.60
2022-12-26T05:51:15.420Z,12.60
2022-12-26T05:53:42.112Z,12.60
2022-12-26T05:56:13.415Z,12.60
2022-12-26T05:58:41.316Z,12.60
2022-12-26T06:01:12.535Z,12.60
2022-12-26T06:03:41.900Z,12.60
2022-12-26T06:06:09.296Z,12.60
2022-12-26T06:08:36.675Z,12.60
2022-12-26T06:11:08.685Z,12.60
2022-12-26T06:13:35.831Z,12.60
2022-12-26T06:16:06.989Z,12.60
2022-12-26T06:18:34.369Z,12.60
2022-12-26T06:21:08.264Z,12.60
2022-12-26T06:23:36.048Z,12.60
2022-12-26T06:26:03.140Z,12.70
2022-12-26T06:28:29.859Z,12.70
2022-12-26T06:31:03.302Z,12.60
2022-12-26T06:33:30.081Z,12.60
2022-12-26T06:36:03.059Z,12.60
2022-12-26T06:38:29.696Z,12.60
2022-12-26T06:40:56.307Z,12.60
2022-12-26T06:43:22.935Z,12.60
2022-12-26T06:46:00.236Z,12.70
2022-12-26T06:48:27.424Z,12.70
2022-12-26T06:50:54.474Z,12.60
2022-12-26T06:53:22.623Z,12.60
2022-12-26T06:55:49.837Z,12.60
2022-12-26T06:58:17.485Z,12.60
2022-12-26T07:00:44.319Z,12.60
2022-12-26T07:03:11.549Z,12.60
2022-12-26T07:05:39.083Z,12.60
2022-12-26T07:08:06.172Z,12.60
2022-12-26T07:10:36.896Z,12.60
2022-12-26T07:13:03.754Z,12.60
2022-12-26T07:15:31.132Z,12.60
2022-12-26T07:17:57.764Z,12.60
2022-12-26T07:20:24.401Z,12.60
2022-12-26T07:22:51.072Z,12.60
2022-12-26T07:25:17.713Z,12.60
2022-12-26T07:27:44.350Z,12.60
2022-12-26T07:30:11.359Z,12.60
2022-12-26T07:32:38.017Z,12.60
2022-12-26T07:35:05.113Z,12.50
2022-12-26T07:37:31.750Z,12.60
2022-12-26T07:39:59.434Z,12.60
2022-12-26T07:42:26.292Z,12.60
2022-12-26T07:44:52.945Z,12.60
2022-12-26T07:47:19.637Z,12.60
2022-12-26T07:49:46.301Z,12.60
2022-12-26T07:52:12.907Z,12.60
2022-12-26T07:54:39.791Z,12.50
2022-12-26T07:57:46.208Z,12.50
2022-12-26T07:59:53.790Z,12.50
2022-12-26T08:02:20.968Z,12.40
2022-12-26T08:04:47.760Z,12.30
2022-12-26T08:07:14.415Z,12.30
2022-12-26T08:09:42.949Z,12.30
2022-12-26T08:12:09.762Z,12.30
2022-12-26T08:14:39.570Z,12.20
2022-12-26T08:17:06.575Z,12.10
2022-12-26T08:19:33.511Z,12.10
2022-12-26T08:22:00.131Z,12.10
2022-12-26T08:24:27.468Z,12.10
2022-12-26T08:26:54.118Z,12.10
2022-12-26T08:29:20.762Z,12.10
2022-12-26T08:31:47.451Z,12.00
2022-12-26T08:34:14.084Z,12.00
2022-12-26T08:36:41.005Z,12.00
2022-12-26T08:39:08.123Z,12.10
2022-12-26T08:41:34.755Z,12.10
2022-12-26T08:44:26.653Z,12.10
2022-12-26T08:46:48.348Z,12.00
2022-12-26T08:49:15.031Z,11.90
2022-12-26T08:51:41.669Z,11.90
2022-12-26T08:54:08.313Z,12.00
2022-12-26T08:56:35.056Z,11.90
2022-12-26T08:59:01.820Z,11.90
2022-12-26T09:01:30.919Z,11.90
2022-12-26T09:04:06.535Z,11.90
2022-12-26T09:06:35.777Z,11.90
2022-12-26T09:09:03.375Z,12.00
2022-12-26T09:11:30.667Z,12.00
2022-12-26T09:13:59.870Z,12.00
2022-12-26T09:16:37.442Z,12.00
2022-12-26T09:19:05.911Z,12.00
2022-12-26T09:21:33.043Z,12.10
2022-12-26T09:24:02.936Z,12.10
2022-12-26T09:26:30.008Z,12.10
2022-12-26T09:28:57.295Z,12.10
2022-12-26T09:31:26.295Z,12.10
2022-12-26T09:33:55.954Z,12.10
2022-12-26T09:36:26.152Z,12.10
2022-12-26T09:38:54.278Z,12.10
2022-12-26T09:41:55.123Z,12.10
2022-12-26T09:44:39.553Z,12.10
2022-12-26T09:47:24.761Z,12.10
2022-12-26T09:49:57.569Z,12.10
2022-12-26T09:52:40.546Z,12.10
2022-12-26T09:55:22.836Z,12.10
2022-12-26T09:57:52.016Z,12.20
2022-12-26T10:00:39.669Z,12.20
2022-12-26T10:03:08.118Z,12.20
2022-12-26T10:05:41.660Z,12.20
2022-12-26T10:08:33.405Z,12.30
2022-12-26T10:11:03.209Z,12.30
2022-12-26T10:13:50.814Z,12.30
2022-12-26T10:16:43.554Z,12.40
2022-12-26T10:19:32.824Z,12.40
2022-12-26T10:22:18.325Z,12.50
2022-12-26T10:24:48.465Z,12.50
2022-12-26T10:27:16.977Z,12.50
2022-12-26T10:29:58.053Z,12.60
2022-12-26T10:32:34.287Z,12.60
2022-12-26T10:35:01.740Z,12.60
2022-12-26T10:37:37.574Z,12.60
2022-12-26T10:40:31.174Z,12.50
2022-12-26T10:43:04.138Z,12.50
2022-12-26T10:45:45.718Z,12.50
2022-12-26T10:48:16.530Z,12.60
2022-12-26T10:50:49.175Z,12.50
2022-12-26T10:53:17.117Z,12.50
2022-12-26T10:55:43.847Z,12.50
2022-12-26T10:58:22.983Z,12.50
2022-12-26T11:00:50.117Z,12.50
2022-12-26T11:03:19.120Z,12.50
2022-12-26T11:06:07.501Z,12.60
2022-12-26T11:08:43.202Z,12.50
2022-12-26T11:11:19.790Z,12.50
2022-12-26T11:13:51.381Z,12.40
2022-12-26T11:16:26.943Z,12.40
2022-12-26T11:18:54.115Z,12.40
2022-12-26T11:21:23.895Z,12.40
2022-12-26T11:23:52.721Z,12.40
2022-12-26T11:26:24.116Z,12.40
2022-12-26T11:29:23.041Z,12.40
2022-12-26T11:32:04.393Z,12.50
2022-12-26T11:34:47.493Z,12.60
2022-12-26T11:37:32.462Z,12.70
2022-12-26T11:40:01.482Z,12.80
2022-12-26T11:42:28.237Z,12.90
2022-12-26T11:44:57.055Z,13.00
2022-12-26T11:47:29.007Z,13.00
2022-12-26T11:50:09.911Z,13.00
2022-12-26T11:52:42.467Z,13.00
2022-12-26T11:55:24.778Z,12.90
2022-12-26T11:58:17.780Z,12.80
2022-12-26T12:01:05.713Z,12.80
2022-12-26T12:03:50.301Z,12.70
2022-12-26T12:06:32.283Z,12.70
2022-12-26T12:09:14.017Z,12.70
2022-12-26T12:11:49.043Z,12.70
2022-12-26T12:14:33.496Z,12.80
2022-12-26T12:17:26.434Z,12.80
2022-12-26T12:20:13.209Z,12.90
2022-12-26T12:23:01.709Z,13.00
2022-12-26T12:25:37.591Z,13.00
2022-12-26T12:28:31.148Z,13.00
2022-12-26T12:31:38.862Z,13.10
2022-12-26T12:34:31.045Z,13.10
2022-12-26T12:37:40.777Z,13.00
2022-12-26T12:40:31.981Z,13.00
2022-12-26T12:43:07.391Z,13.00
2022-12-26T12:45:43.309Z,13.00
2022-12-26T12:48:46.655Z,13.10
2022-12-26T12:51:43.078Z,13.10
2022-12-26T12:54:37.892Z,13.10
2022-12-26T12:57:28.643Z,13.10
2022-12-26T13:00:16.168Z,13.10
2022-12-26T13:03:05.601Z,13.10
2022-12-26T13:05:55.715Z,13.10
2022-12-26T13:08:35.402Z,13.10
2022-12-26T13:11:18.459Z,13.10
2022-12-26T13:13:54.059Z,12.90
2022-12-26T13:16:27.141Z,13.10
2022-12-26T13:19:07.215Z,13.10
2022-12-26T13:21:38.685Z,13.10
2022-12-26T13:24:27.437Z,13.00
2022-12-26T13:27:00.398Z,13.00
2022-12-26T13:29:41.894Z,13.00
2022-12-26T13:32:22.282Z,13.00
2022-12-26T13:34:50.041Z,13.00
2022-12-26T13:37:38.591Z,12.90
2022-12-26T13:40:11.359Z,12.90
2022-12-26T13:43:05.280Z,12.90
2022-12-26T13:45:37.798Z,12.90
2022-12-26T13:48:16.337Z,12.90
2022-12-26T13:50:55.782Z,12.90
2022-12-26T13:53:25.884Z,12.80
2022-12-26T13:56:02.804Z,12.80
2022-12-26T13:58:32.290Z,12.80
2022-12-26T14:01:25.901Z,12.80
2022-12-26T14:04:17.277Z,12.80
2022-12-26T14:06:49.910Z,12.80
2022-12-26T14:09:22.106Z,12.80
2022-12-26T14:12:16.803Z,12.70
2022-12-26T14:15:01.279Z,12.70
2022-12-26T14:17:36.449Z,12.60
2022-12-26T14:20:35.650Z,12.60
2022-12-26T14:23:28.064Z,12.60
2022-12-26T14:26:15.060Z,12.60
2022-12-26T14:29:12.779Z,12.60
2022-12-26T14:32:21.254Z,12.60
2022-12-26T14:35:08.309Z,12.60
2022-12-26T14:37:37.728Z,12.60
2022-12-26T14:40:07.455Z,12.60
2022-12-26T14:43:12.032Z,12.60
2022-12-26T14:45:51.059Z,12.60
2022-12-26T14:48:17.912Z,12.60
2022-12-26T14:50:56.410Z,12.60
2022-12-26T14:53:28.919Z,12.60
2022-12-26T14:56:03.761Z,12.60
2022-12-26T14:58:43.909Z,12.60
2022-12-26T15:01:10.767Z,12.60
2022-12-26T15:03:59.465Z,12.60
2022-12-26T15:07:12.882Z,12.60
2022-12-26T15:10:19.552Z,12.50
2022-12-26T15:13:00.925Z,12.40
2022-12-26T15:16:08.642Z,12.40
2022-12-26T15:19:12.300Z,12.40
2022-12-26T15:21:57.783Z,12.30
2022-12-26T15:28:04.287Z,12.30
2022-12-26T15:30:36.859Z,12.30
2022-12-26T15:33:09.921Z,11.80
2022-12-26T15:35:55.655Z,12.00
2022-12-26T15:38:28.924Z,11.80
2022-12-26T15:41:14.907Z,11.70
2022-12-26T15:44:28.147Z,11.60
2022-12-26T15:47:24.799Z,11.60
2022-12-26T15:50:20.762Z,11.40
2022-12-26T15:53:17.641Z,11.30
2022-12-26T15:56:05.022Z,11.10
2022-12-26T15:59:07.310Z,11.00
2022-12-26T16:01:46.490Z,10.90
2022-12-26T16:04:24.915Z,10.80
2022-12-26T16:07:08.450Z,10.80
2022-12-26T16:09:47.233Z,11.00
2022-12-26T16:12:23.120Z,10.70
2022-12-26T16:14:50.768Z,10.70
2022-12-26T16:17:22.131Z,10.60
2022-12-26T16:19:51.031Z,10.60
2022-12-26T16:22:42.201Z,10.60
2022-12-26T16:25:10.053Z,10.60
2022-12-26T16:27:37.968Z,10.60
2022-12-26T16:30:11.965Z,10.60
2022-12-26T16:32:41.700Z,10.60
2022-12-26T16:35:26.062Z,10.50
2022-12-26T16:37:55.196Z,10.50
2022-12-26T16:40:32.268Z,10.40
2022-12-26T16:43:05.174Z,10.40
2022-12-26T16:45:35.098Z,10.30
2022-12-26T16:48:05.959Z,10.20
2022-12-26T16:50:34.727Z,10.00
2022-12-26T16:53:11.189Z,9.90
2022-12-26T16:55:45.097Z,9.90
2022-12-26T16:58:27.281Z,9.80
2022-12-26T17:01:12.372Z,9.70
2022-12-26T17:03:42.282Z,9.70
2022-12-26T17:06:13.821Z,9.60
2022-12-26T17:08:42.919Z,9.60
2022-12-26T17:11:09.905Z,9.50
2022-12-26T17:13:36.973Z,9.50
2022-12-26T17:16:10.619Z,9.50
2022-12-26T17:18:40.112Z,9.40
2022-12-26T17:21:24.813Z,9.50
2022-12-26T17:24:12.769Z,9.50
2022-12-26T17:26:41.895Z,9.50
2022-12-26T17:29:35.914Z,9.50
2022-12-26T17:32:08.578Z,9.50
2022-12-26T17:34:38.188Z,9.50
2022-12-26T17:37:20.799Z,9.50
2022-12-26T17:40:28.624Z,9.50
2022-12-26T17:43:06.652Z,9.50
2022-12-26T17:45:33.474Z,9.50
2022-12-26T17:48:00.131Z,9.50
2022-12-26T17:50:36.040Z,9.40
2022-12-26T17:53:08.297Z,9.40
2022-12-26T17:55:35.299Z,9.30
2022-12-26T17:58:01.927Z,9.20
2022-12-26T18:00:29.458Z,9.20
2022-12-26T18:02:56.659Z,9.20
2022-12-26T18:05:23.525Z,9.10
2022-12-26T18:07:52.594Z,9.10
2022-12-26T18:10:29.076Z,9.00
2022-12-26T18:12:56.949Z,9.00
2022-12-26T18:15:25.788Z,9.00
2022-12-26T18:17:53.137Z,8.90
2022-12-26T18:20:23.060Z,8.90
2022-12-26T18:22:49.821Z,8.80
2022-12-26T18:25:18.450Z,8.70
2022-12-26T18:27:45.930Z,8.70
2022-12-26T18:30:17.437Z,8.60
2022-12-26T18:32:44.555Z,8.70
2022-12-26T18:35:12.492Z,8.60
2022-12-26T18:37:40.600Z,8.60
2022-12-26T18:40:15.741Z,8.60
2022-12-26T18:42:42.446Z,8.60
2022-12-26T18:45:09.106Z,8.50
2022-12-26T18:47:35.731Z,8.50
2022-12-26T18:50:02.363Z,8.50
2022-12-26T18:52:28.966Z,8.60
2022-12-26T18:54:55.568Z,8.50
2022-12-26T18:57:22.240Z,8.50
2022-12-26T18:59:48.839Z,8.50
2022-12-26T19:02:17.740Z,8.60
2022-12-26T19:04:44.441Z,8.50
2022-12-26T19:07:11.517Z,8.50
2022-12-26T19:09:47.002Z,8.50
2022-12-26T19:12:14.088Z,8.50
2022-12-26T19:14:41.532Z,8.60
2022-12-26T19:17:08.191Z,8.60
2022-12-26T19:19:35.105Z,8.70
2022-12-26T19:22:01.918Z,8.70
2022-12-26T19:24:28.627Z,8.80
2022-12-26T19:26:55.285Z,8.80
2022-12-26T19:29:21.972Z,8.90
2022-12-26T19:31:48.677Z,8.90
2022-12-26T19:34:15.366Z,8.90
2022-12-26T19:36:42.002Z,9.00
2022-12-26T19:39:08.750Z,9.00
2022-12-26T19:41:35.416Z,9.10
2022-12-26T19:44:02.041Z,9.10
2022-12-26T19:46:28.930Z,9.10
2022-12-26T19:48:55.656Z,9.10
2022-12-26T19:51:22.512Z,9.10
2022-12-26T19:53:49.880Z,9.10
2022-12-26T19:56:22.308Z,9.10
2022-12-26T19:58:53.234Z,9.10
2022-12-26T20:01:25.865Z,9.10
2022-12-26T20:03:57.670Z,9.00
2022-12-26T20:06:26.424Z,8.90
2022-12-26T20:08:57.126Z,8.90
2022-12-26T20:11:28.367Z,8.80
2022-12-26T20:13:55.015Z,8.80
2022-12-26T20:17:03.449Z,8.80
2022-12-26T20:19:11.172Z,8.80
2022-12-26T20:21:38.433Z,8.70
2022-12-26T20:24:05.520Z,8.70
2022-12-26T20:26:32.276Z,8.60
2022-12-26T20:29:03.446Z,8.50
2022-12-26T20:31:32.207Z,8.40
2022-12-26T20:33:59.374Z,8.40
2022-12-26T20:36:32.173Z,8.30
2022-12-26T20:39:06.274Z,8.20
2022-12-26T20:41:34.035Z,8.10
2022-12-26T20:44:00.761Z,8.00
2022-12-26T20:46:32.128Z,7.90
2022-12-26T20:49:01.220Z,7.80
2022-12-26T20:51:36.591Z,7.80
2022-12-26T20:54:06.062Z,7.60
2022-12-26T20:56:32.924Z,7.50
2022-12-26T20:58:59.941Z,7.40
2022-12-26T21:01:27.685Z,7.40
2022-12-26T21:03:55.527Z,7.30
2022-12-26T21:06:25.870Z,7.20
2022-12-26T21:08:53.870Z,7.10
2022-12-26T21:11:23.927Z,7.10
2022-12-26T21:13:52.243Z,7.00
2022-12-26T21:16:21.062Z,6.90
2022-12-26T21:18:48.090Z,6.90
2022-12-26T21:21:21.536Z,6.80
2022-12-26T21:23:49.006Z,6.70
2022-12-26T21:26:16.227Z,6.60
2022-12-26T21:28:43.010Z,6.60
2022-12-26T21:31:10.998Z,6.50
2022-12-26T21:33:44.250Z,6.50
2022-12-26T21:36:13.120Z,6.40
2022-12-26T21:38:39.822Z,6.40
2022-12-26T21:41:08.879Z,6.30
2022-12-26T21:43:35.661Z,6.30
2022-12-26T21:46:08.236Z,6.30
2022-12-26T21:48:35.528Z,6.20
2022-12-26T21:51:02.319Z,6.20
2022-12-26T21:53:28.965Z,6.10
2022-12-26T21:55:55.579Z,6.10
2022-12-26T21:58:22.246Z,6.10
2022-12-26T22:00:48.881Z,6.00
2022-12-26T22:03:34.451Z,6.00
2022-12-26T22:06:01.177Z,5.90
2022-12-26T22:08:27.813Z,5.90
2022-12-26T22:11:12.795Z,5.80
2022-12-26T22:13:44.413Z,5.50
2022-12-26T22:16:12.428Z,5.80
2022-12-26T22:18:48.201Z,5.80
2022-12-26T22:21:17.609Z,5.80
2022-12-26T22:23:45.266Z,5.70
2022-12-26T22:26:14.653Z,5.70
2022-12-26T22:28:42.323Z,5.70
2022-12-26T22:31:17.304Z,5.60
2022-12-26T22:33:43.946Z,5.60
2022-12-26T22:36:10.566Z,5.50
2022-12-26T22:38:37.877Z,5.50
2022-12-26T22:41:05.028Z,5.50
2022-12-26T22:43:32.513Z,5.50
2022-12-26T22:45:59.255Z,5.50
2022-12-26T22:48:25.990Z,5.40
2022-12-26T22:50:54.868Z,5.30
2022-12-26T22:53:29.253Z,5.30
2022-12-26T22:56:04.993Z,5.30
2022-12-26T22:58:33.082Z,5.30
2022-12-26T23:01:00.520Z,5.30
2022-12-26T23:03:28.284Z,5.30
2022-12-26T23:05:55.742Z,5.30
2022-12-26T23:08:25.445Z,5.30
2022-12-26T23:10:54.990Z,5.20
2022-12-26T23:13:22.214Z,5.20
2022-12-26T23:16:23.964Z,5.20
2022-12-26T23:19:12.086Z,5.20
2022-12-26T23:21:42.232Z,5.10
2022-12-26T23:24:11.641Z,5.10
2022-12-26T23:26:39.958Z,5.10
2022-12-26T23:29:25.363Z,5.10
2022-12-26T23:31:52.107Z,5.00
2022-12-26T23:34:18.815Z,5.00
2022-12-26T23:36:45.434Z,5.00
2022-12-26T23:39:12.099Z,5.00
2022-12-26T23:41:38.782Z,5.00
2022-12-26T23:44:05.521Z,4.90
2022-12-26T23:46:32.167Z,4.90
2022-12-26T23:48:58.818Z,4.80
2022-12-26T23:51:25.476Z,4.80
2022-12-26T23:53:52.123Z,4.80
2022-12-26T23:56:18.947Z,4.70
2022-12-26T23:58:45.577Z,4.70
